Time;durP1;ratioP1;P1;durP2;ratioP2;P2;SDS_P1;SDS_P2;PMS_P1;PMS_P2;Temp;Humidity;BMP_temperature;BMP_pressure;BME280_temperature;BME280_humidity;BME280_pressure;Samples;Min_cycle;Max_cycle;Signal;HPM_P1;HPM_P2
2022/05/29 00:00:13;;;;;;;7.83;2.15;;;;;;;8.74;70.19;100258.02;1798529;79;21208;-69
2022/05/29 00:02:41;;;;;;;9.68;2.30;;;;;;;8.72;70.26;100254.69;1793510;79;21486;-69
2022/05/29 00:05:08;;;;;;;7.65;2.08;;;;;;;8.69;70.31;100257.68;1793464;79;21741;-69
2022/05/29 00:07:35;;;;;;;11.35;2.67;;;;;;;8.65;70.37;100257.17;1781786;80;21061;-70
2022/05/29 00:10:04;;;;;;;7.08;2.17;;;;;;;8.60;70.45;100254.64;1783526;80;21724;-69
2022/05/29 00:12:30;;;;;;;9.97;2.60;;;;;;;8.57;70.50;100253.64;1769076;80;21168;-69
2022/05/29 00:14:56;;;;;;;6.83;2.05;;;;;;;8.53;70.56;100255.29;1782690;80;21025;-69
2022/05/29 00:17:22;;;;;;;6.83;2.15;;;;;;;8.50;70.61;100254.28;1781236;80;20967;-69
2022/05/29 00:19:48;;;;;;;9.75;2.70;;;;;;;8.47;70.68;100251.95;1779458;80;20938;-69
2022/05/29 00:22:17;;;;;;;8.63;2.42;;;;;;;8.45;70.76;100252.59;1781666;80;21499;-69
2022/05/29 00:24:45;;;;;;;12.25;1.98;;;;;;;8.41;70.81;100255.22;1783087;80;22136;-69
2022/05/29 00:27:11;;;;;;;6.35;2.12;;;;;;;8.38;70.84;100256.04;1782585;80;20968;-70
2022/05/29 00:29:38;;;;;;;11.28;2.12;;;;;;;8.32;70.91;100252.70;1782696;80;21025;-69
2022/05/29 00:32:05;;;;;;;7.47;2.60;;;;;;;8.27;70.97;100254.46;1782753;80;21483;-69
2022/05/29 00:34:32;;;;;;;8.20;2.10;;;;;;;8.22;71.02;100252.80;1763975;80;21010;-69
2022/05/29 00:36:58;;;;;;;9.65;2.20;;;;;;;8.18;71.10;100251.93;1780894;80;21151;-69
2022/05/29 00:39:25;;;;;;;10.00;2.65;;;;;;;8.13;71.16;100254.25;1782667;80;21006;-69
2022/05/29 00:41:50;;;;;;;12.45;2.60;;;;;;;8.07;71.20;100257.02;1782647;80;21542;-69
2022/05/29 00:44:23;;;;;;;7.65;2.55;;;;;;;8.03;71.26;100258.31;1780939;80;20959;-69
2022/05/29 00:47:09;;;;;;;8.08;2.00;;;;;;;8.00;71.30;100251.51;1782803;80;20994;-69
2022/05/29 00:49:36;;;;;;;16.52;3.25;;;;;;;7.96;71.36;100253.30;1782464;80;21490;-69
2022/05/29 00:52:09;;;;;;;9.45;2.90;;;;;;;7.90;71.42;100248.62;1782816;80;20955;-69
2022/05/29 00:54:42;;;;;;;9.88;3.77;;;;;;;7.86;71.47;100249.91;1777810;80;21058;-69
2022/05/29 00:57:17;;;;;;;10.82;3.42;;;;;;;7.83;71.53;100244.92;1781372;80;20987;-69
2022/05/29 00:59:43;;;;;;;11.55;3.62;;;;;;;7.81;71.58;100240.28;1752200;81;21515;-69
2022/05/29 01:02:09;;;;;;;11.83;4.83;;;;;;;7.79;71.63;100242.23;1732560;80;22078;-69
2022/05/29 01:04:37;;;;;;;9.20;2.98;;;;;;;7.79;71.69;100239.09;1775419;80;21035;-69
2022/05/29 01:07:08;;;;;;;13.50;3.60;;;;;;;7.77;71.71;100239.75;1775087;79;21462;-69
2022/05/29 01:09:36;;;;;;;9.60;3.15;;;;;;;7.77;71.79;100241.58;1774699;80;21042;-69
2022/05/29 01:12:28;;;;;;;6.03;2.40;;;;;;;7.76;71.82;100238.08;1728802;82;21045;-69
2022/05/29 01:15:24;;;;;;;8.68;2.30;;;;;;;7.75;71.88;100238.22;1745681;81;21029;-69
2022/05/29 01:18:39;;;;;;;7.50;2.33;;;;;;;7.75;71.95;100236.41;1733865;80;21497;-69
2022/05/29 01:21:41;;;;;;;6.75;2.08;;;;;;;7.78;71.98;100239.23;1744262;82;21081;-69
2022/05/29 01:24:30;;;;;;;10.58;2.83;;;;;;;7.76;72.05;100227.47;1738764;81;20998;-69
2022/05/29 01:27:26;;;;;;;8.25;2.42;;;;;;;7.75;72.10;100235.57;1789409;79;20994;-70
2022/05/29 01:30:08;;;;;;;5.37;2.42;;;;;;;7.73;72.17;100228.27;1732530;80;21321;-70
2022/05/29 01:32:58;;;;;;;4.45;1.85;;;;;;;7.69;72.22;100237.04;1717468;82;21005;-69
2022/05/29 01:35:34;;;;;;;10.60;2.30;;;;;;;7.65;72.25;100233.52;1738304;81;21495;-70
2022/05/29 01:38:13;;;;;;;15.65;2.77;;;;;;;7.60;72.32;100230.51;1746735;80;21086;-69
2022/05/29 01:40:44;;;;;;;7.08;1.90;;;;;;;7.57;72.37;100232.12;1774180;80;21025;-70
2022/05/29 01:43:40;;;;;;;6.45;2.10;;;;;;;7.56;72.43;100233.97;1769917;80;21046;-69
2022/05/29 01:46:09;;;;;;;10.40;2.27;;;;;;;7.55;72.48;100234.94;1742548;82;21045;-69
2022/05/29 01:49:10;;;;;;;5.55;1.50;;;;;;;7.56;72.58;100237.11;1796194;79;21012;-69
2022/05/29 01:52:04;;;;;;;14.43;2.75;;;;;;;7.58;72.61;100231.14;1772772;80;21073;-69
2022/05/29 01:54:38;;;;;;;9.73;2.08;;;;;;;7.60;72.68;100218.05;1742656;82;21022;-69
2022/05/29 01:57:24;;;;;;;10.28;2.40;;;;;;;7.62;72.71;100221.88;1789222;79;21018;-70
2022/05/29 02:00:09;;;;;;;6.37;1.98;;;;;;;7.65;72.78;100222.41;1755692;80;21589;-69
2022/05/29 02:02:39;;;;;;;10.43;2.05;;;;;;;7.66;72.85;100217.94;1750914;80;21001;-69
2022/05/29 02:05:10;;;;;;;7.25;1.67;;;;;;;7.68;72.91;100219.93;1771373;81;21035;-69
2022/05/29 02:07:47;;;;;;;9.80;2.15;;;;;;;7.68;72.95;100214.62;1761886;80;21026;-70
2022/05/29 02:10:22;;;;;;;7.95;2.37;;;;;;;7.68;73.02;100213.30;1713755;83;21185;-69
2022/05/29 02:13:17;;;;;;;10.20;2.40;;;;;;;7.66;73.07;100216.12;1726808;82;21592;-69
2022/05/29 02:15:54;;;;;;;12.00;3.20;;;;;;;7.64;73.11;100214.09;1764650;80;20990;-69
2022/05/29 02:18:26;;;;;;;14.03;2.20;;;;;;;7.63;73.20;100214.27;1768036;80;20992;-69
2022/05/29 02:20:52;;;;;;;6.90;2.00;;;;;;;7.60;73.25;100207.95;1789546;79;21513;-69
2022/05/29 02:23:33;;;;;;;12.23;2.83;;;;;;;7.60;73.31;100210.61;1777813;80;22106;-69
2022/05/29 02:25:58;;;;;;;;;;;;;;;7.59;73.36;100212.42;1746648;82;21021;-69
2022/05/29 02:28:29;;;;;;;7.22;2.20;;;;;;;7.61;73.42;100213.58;1743103;81;20191;-69
2022/05/29 02:31:20;;;;;;;11.93;2.80;;;;;;;7.62;73.45;100215.25;1783072;80;21487;-69
2022/05/29 02:34:06;;;;;;;12.63;2.33;;;;;;;7.64;73.50;100217.23;1742627;82;21018;-69
2022/05/29 02:36:54;;;;;;;9.75;2.12;;;;;;;7.67;73.54;100215.62;1752816;81;21039;-70
2022/05/29 02:39:29;;;;;;;6.47;1.90;;;;;;;7.71;73.58;100213.81;1791070;80;20954;-70
2022/05/29 02:42:21;;;;;;;12.45;2.45;;;;;;;7.75;73.62;100216.98;1790694;80;20982;-69
2022/05/29 02:45:05;;;;;;;6.42;1.50;;;;;;;7.77;73.66;100210.56;1792321;79;21509;-69
2022/05/29 02:48:11;;;;;;;8.65;1.75;;;;;;;7.81;73.71;100216.38;1787515;80;21561;-70
2022/05/29 02:51:15;;;;;;;14.43;2.75;;;;;;;7.83;73.76;100218.38;1774638;80;21656;-69
2022/05/29 02:53:45;;;;;;;10.78;2.22;;;;;;;7.85;73.81;100215.89;1795417;79;20958;-69
2022/05/29 02:56:11;;;;;;;13.30;2.33;;;;;;;7.89;73.84;100220.39;1774719;80;21289;-69
2022/05/29 02:58:38;;;;;;;7.47;2.02;;;;;;;7.93;73.86;100220.42;1795189;79;21065;-69
2022/05/29 03:01:33;;;;;;;7.05;2.12;;;;;;;7.96;73.90;100224.09;1761437;80;21011;-69
2022/05/29 03:04:26;;;;;;;12.20;2.17;;;;;;;7.99;73.91;100225.93;1767114;81;21140;-70
2022/05/29 03:07:28;;;;;;;10.15;1.85;;;;;;;8.01;73.96;100232.42;1763484;80;21482;-70
2022/05/29 03:10:15;;;;;;;8.93;2.05;;;;;;;8.02;73.99;100227.47;1748221;81;21064;-70
2022/05/29 03:12:49;;;;;;;7.62;2.08;;;;;;;8.04;74.01;100232.11;1767308;81;20949;-69
2022/05/29 03:15:39;;;;;;;5.92;2.08;;;;;;;8.06;74.04;100234.09;1766373;81;21485;-69
2022/05/29 03:18:50;;;;;;;8.38;1.87;;;;;;;8.08;74.08;100234.79;1767281;80;22334;-69
2022/05/29 03:21:27;;;;;;;9.60;2.50;;;;;;;8.10;74.11;100232.80;1767259;81;20954;-69
2022/05/29 03:24:17;;;;;;;7.40;2.15;;;;;;;8.13;74.13;100235.13;1766908;81;21025;-69
2022/05/29 03:26:57;;;;;;;11.90;2.10;;;;;;;8.17;74.14;100234.32;1766941;81;21017;-69
2022/05/29 03:29:34;;;;;;;9.48;2.10;;;;;;;8.20;74.16;100237.48;1765930;81;21552;-70
2022/05/29 03:32:01;;;;;;;7.08;2.10;;;;;;;8.23;74.15;100243.84;1764829;81;21667;-70
2022/05/29 03:34:27;;;;;;;9.30;2.40;;;;;;;8.25;74.15;100234.38;1732195;81;21033;-70
2022/05/29 03:36:53;;;;;;;8.65;2.12;;;;;;;8.29;74.18;100235.27;1789521;79;20926;-70
2022/05/29 03:39:20;;;;;;;8.50;2.40;;;;;;;8.32;74.18;100234.94;1766297;81;21005;-70
2022/05/29 03:41:51;;;;;;;7.90;2.20;;;;;;;8.35;74.16;100242.59;1775126;79;20954;-70
2022/05/29 03:44:19;;;;;;;8.05;1.85;;;;;;;8.38;74.19;100242.27;1797232;79;21130;-69
2022/05/29 03:46:45;;;;;;;11.05;3.10;;;;;;;8.42;74.16;100240.95;1783258;79;21004;-70
2022/05/29 03:49:13;;;;;;;8.20;2.20;;;;;;;8.46;74.18;100246.29;1777239;79;21038;-70
2022/05/29 03:51:39;;;;;;;7.78;2.20;;;;;;;8.51;74.17;100246.63;1765954;80;20998;-69
2022/05/29 03:54:05;;;;;;;9.25;2.70;;;;;;;8.54;74.16;100242.84;1798374;79;20939;-70
2022/05/29 03:56:31;;;;;;;9.88;2.25;;;;;;;8.57;74.14;100243.00;1798786;79;21669;-69
2022/05/29 03:58:57;;;;;;;7.50;1.80;;;;;;;8.59;74.15;100236.52;1766560;79;21002;-69
2022/05/29 04:01:23;;;;;;;6.67;2.17;;;;;;;8.65;74.10;100235.06;1775608;79;21628;-70
2022/05/29 04:03:50;;;;;;;9.53;2.70;;;;;;;8.67;74.11;100240.55;1755830;80;20986;-70
2022/05/29 04:06:17;;;;;;;12.45;2.65;;;;;;;8.71;74.10;100242.38;1764948;80;21487;-70
2022/05/29 04:14:11;;;;;;;8.38;2.45;;;;;;;8.79;74.04;100234.44;1733638;82;20997;-69
2022/05/29 04:16:37;;;;;;;9.68;2.65;;;;;;;8.80;74.00;100232.09;1733764;82;20852;-69
2022/05/29 04:19:03;;;;;;;10.55;2.10;;;;;;;8.84;74.03;100229.45;1733237;81;21054;-70
2022/05/29 04:21:29;;;;;;;7.85;2.33;;;;;;;8.91;74.00;100233.13;1736715;81;21145;-70
2022/05/29 04:23:55;;;;;;;7.87;1.92;;;;;;;8.96;73.95;100239.63;1733909;82;21645;-70
2022/05/29 04:26:21;;;;;;;10.78;1.98;;;;;;;8.99;73.95;100234.48;1726253;81;21914;-69
2022/05/29 04:28:47;;;;;;;10.32;2.60;;;;;;;9.01;73.90;100235.13;1731114;82;21079;-70
2022/05/29 04:31:13;;;;;;;7.40;2.20;;;;;;;9.05;73.87;100240.46;1730761;82;20994;-70
2022/05/29 04:33:39;;;;;;;6.72;1.98;;;;;;;9.11;73.86;100239.83;1730936;82;21043;-69
2022/05/29 04:36:06;;;;;;;10.78;2.77;;;;;;;9.13;73.79;100235.16;1730764;82;21054;-70
2022/05/29 04:38:32;;;;;;;11.45;2.67;;;;;;;9.19;73.77;100234.50;1731890;82;21487;-70
2022/05/29 04:40:58;;;;;;;14.20;2.62;;;;;;;9.30;73.77;100230.67;1732072;82;21461;-70
2022/05/29 04:43:24;;;;;;;10.82;2.45;;;;;;;9.38;73.75;100230.69;1713600;82;21062;-69
2022/05/29 04:45:54;;;;;;;10.30;2.55;;;;;;;9.49;73.72;100229.03;1725825;82;21141;-70
2022/05/29 04:48:20;;;;;;;10.85;2.85;;;;;;;9.58;73.65;100228.02;1735502;82;21008;-69
2022/05/29 04:50:46;;;;;;;10.28;2.45;;;;;;;9.67;73.58;100224.86;1724190;82;21538;-69
2022/05/29 04:53:12;;;;;;;16.37;3.02;;;;;;;9.72;73.52;100222.50;1729012;82;21021;-69
2022/05/29 04:55:39;;;;;;;10.48;2.50;;;;;;;9.80;73.45;100218.01;1732273;82;21077;-69
2022/05/29 04:58:07;;;;;;;10.78;2.90;;;;;;;9.94;73.42;100216.48;1736338;81;21482;-69
2022/05/29 05:00:33;;;;;;;10.68;2.40;;;;;;;10.09;73.33;100217.45;1733628;81;20964;-70
2022/05/29 05:02:59;;;;;;;9.83;2.47;;;;;;;10.20;73.25;100221.11;1717547;82;21006;-69
2022/05/29 05:05:27;;;;;;;8.70;2.50;;;;;;;10.32;73.20;100217.05;1704595;82;21054;-70
2022/05/29 05:07:53;;;;;;;8.65;2.35;;;;;;;10.40;73.10;100219.69;1739716;81;21024;-69
2022/05/29 05:10:19;;;;;;;7.62;2.72;;;;;;;10.49;72.99;100219.97;1742784;81;21145;-70
2022/05/29 05:12:45;;;;;;;8.53;2.30;;;;;;;10.53;72.85;100222.63;1744181;81;21667;-70
2022/05/29 05:15:14;;;;;;;5.15;2.30;;;;;;;10.56;72.77;100221.94;1762008;80;20994;-70
2022/05/29 05:17:41;;;;;;;11.20;2.55;;;;;;;10.64;72.65;100220.57;1760961;80;21002;-70
2022/05/29 05:20:08;;;;;;;12.50;3.40;;;;;;;10.68;72.52;100216.05;1743825;82;21529;-70
2022/05/29 05:22:34;;;;;;;10.53;2.52;;;;;;;10.65;72.39;100222.23;1744041;82;21209;-70
2022/05/29 05:25:01;;;;;;;15.10;3.02;;;;;;;10.66;72.26;100215.38;1764565;80;20993;-70
2022/05/29 05:27:28;;;;;;;9.23;2.98;;;;;;;10.75;72.18;100216.18;1747357;80;21064;-70
2022/05/29 05:29:54;;;;;;;7.80;2.67;;;;;;;10.80;72.05;100214.63;1739681;81;21057;-70
2022/05/29 05:32:20;;;;;;;8.53;2.27;;;;;;;10.90;71.97;100214.43;1718105;82;21046;-70
2022/05/29 05:34:46;;;;;;;10.65;2.65;;;;;;;11.05;71.80;100224.65;1731544;80;21613;-70
2022/05/29 05:37:12;;;;;;;9.38;2.95;;;;;;;11.07;71.68;100219.98;1743615;82;21308;-70
2022/05/29 05:39:38;;;;;;;11.93;3.22;;;;;;;11.15;71.55;100222.61;1743878;82;21093;-70
2022/05/29 05:42:06;;;;;;;10.85;2.65;;;;;;;11.20;71.45;100220.72;1744064;82;20997;-70
2022/05/29 05:44:32;;;;;;;8.85;2.33;;;;;;;11.31;71.36;100225.14;1757607;80;21053;-70
2022/05/29 05:46:58;;;;;;;6.87;2.90;;;;;;;11.39;71.15;100222.91;1774876;80;21022;-70
2022/05/29 05:49:24;;;;;;;10.93;2.72;;;;;;;11.40;71.00;100228.05;1772077;80;20961;-70
2022/05/29 05:51:50;;;;;;;8.20;2.85;;;;;;;11.42;70.88;100228.73;1716730;82;20990;-70
2022/05/29 05:54:16;;;;;;;7.58;2.30;;;;;;;11.42;70.73;100230.56;1724334;80;21005;-70
2022/05/29 05:56:50;;;;;;;8.65;2.50;;;;;;;11.45;70.63;100224.86;1743848;82;21006;-70
2022/05/29 05:59:16;;;;;;;13.20;2.70;;;;;;;11.53;70.49;100230.14;1743913;82;21994;-70
2022/05/29 06:01:42;;;;;;;14.58;3.12;;;;;;;11.59;70.27;100232.58;1743713;82;20985;-70
2022/05/29 06:04:08;;;;;;;11.48;2.80;;;;;;;11.69;70.17;100235.83;1741985;80;21001;-70
2022/05/29 06:06:34;;;;;;;6.05;2.40;;;;;;;11.75;69.98;100242.64;1714143;83;20993;-70
2022/05/29 06:09:00;;;;;;;8.43;2.83;;;;;;;11.90;69.87;100241.33;1752406;81;20977;-70
2022/05/29 06:11:28;;;;;;;9.45;2.45;;;;;;;12.06;69.66;100239.02;1766802;81;21111;-70
2022/05/29 06:13:55;;;;;;;8.33;2.70;;;;;;;12.17;69.46;100240.73;1749345;81;21002;-70
2022/05/29 06:16:21;;;;;;;8.08;2.75;;;;;;;12.27;69.28;100243.95;1743606;82;21104;-70
2022/05/29 06:18:47;;;;;;;9.95;2.90;;;;;;;12.44;69.13;100248.09;1748259;81;21049;-70
2022/05/29 06:21:14;;;;;;;9.20;2.80;;;;;;;12.58;68.95;100242.91;1745423;81;21549;-70
2022/05/29 06:23:40;;;;;;;8.55;2.47;;;;;;;12.70;68.66;100240.09;1743185;80;21325;-70
2022/05/29 06:26:09;;;;;;;11.48;2.92;;;;;;;12.94;68.59;100237.91;1742280;80;21045;-70
2022/05/29 06:28:35;;;;;;;13.83;3.22;;;;;;;13.17;68.36;100239.09;1738574;80;21668;-70
2022/05/29 06:31:06;;;;;;;11.70;2.60;;;;;;;13.23;68.03;100234.31;1741477;80;21013;-70
2022/05/29 06:33:32;;;;;;;8.60;2.77;;;;;;;13.20;67.80;100233.36;1747525;80;21484;-71
2022/05/29 06:36:13;;;;;;;13.38;2.83;;;;;;;13.17;67.55;100236.42;1762160;79;21995;-71
2022/05/29 06:38:40;;;;;;;9.55;2.92;;;;;;;13.11;67.09;100228.32;1741873;80;21740;-72
2022/05/29 06:41:08;;;;;;;12.73;2.50;;;;;;;13.11;67.09;100228.32;1743010;81;21057;-70
2022/05/29 06:43:34;;;;;;;13.32;3.02;;;;;;;13.41;66.72;100225.32;1764059;79;20961;-70
2022/05/29 06:46:01;;;;;;;10.88;3.02;;;;;;;13.41;66.72;100225.32;1775844;79;21010;-71
2022/05/29 06:48:27;;;;;;;9.45;2.72;;;;;;;13.60;66.41;100226.52;1773919;79;21121;-71
2022/05/29 06:50:53;;;;;;;8.40;2.80;;;;;;;13.72;66.15;100226.83;1774049;79;20954;-71
2022/05/29 06:53:20;;;;;;;9.75;2.92;;;;;;;13.87;65.92;100230.23;1795376;79;21509;-71
2022/05/29 06:55:54;;;;;;;9.78;2.67;;;;;;;14.01;65.73;100235.99;1771922;80;20994;-71
2022/05/29 06:58:20;;;;;;;9.25;3.02;;;;;;;13.95;65.41;100236.79;1771671;80;21006;-70
2022/05/29 07:09:00;;;;;;;13.53;2.85;;;;;;;14.03;64.52;100239.33;1729921;80;21070;-71
2022/05/29 07:11:30;;;;;;;11.48;2.50;;;;;;;14.03;64.23;100233.97;1736136;81;21092;-70
2022/05/29 07:13:56;;;;;;;9.98;2.55;;;;;;;14.05;64.07;100219.84;1686531;83;21113;-71
2022/05/29 07:16:22;;;;;;;10.45;2.60;;;;;;;14.05;64.07;100219.84;1720546;82;21066;-71
2022/05/29 07:18:50;;;;;;;9.40;2.20;;;;;;;14.21;63.65;100235.63;1723911;82;20993;-71
2022/05/29 07:21:16;;;;;;;8.68;2.42;;;;;;;14.19;63.45;100234.98;1716959;82;20997;-71
2022/05/29 07:23:43;;;;;;;11.08;2.77;;;;;;;14.13;63.19;100238.97;1727416;82;21078;-71
2022/05/29 07:26:09;;;;;;;6.28;2.20;;;;;;;14.23;63.08;100238.94;1739765;81;21149;-71
2022/05/29 07:28:35;;;;;;;8.85;2.62;;;;;;;14.23;62.84;100242.95;1681141;83;21144;-71
2022/05/29 07:31:03;;;;;;;11.63;2.60;;;;;;;14.29;62.66;100239.98;1742228;81;20991;-71
2022/05/29 07:33:29;;;;;;;7.00;2.08;;;;;;;14.39;62.59;100239.17;1709839;81;21359;-71
2022/05/29 07:35:56;;;;;;;7.33;1.77;;;;;;;14.49;62.38;100239.63;1735146;81;21387;-71
2022/05/29 07:38:22;;;;;;;12.90;3.02;;;;;;;14.54;62.22;100244.37;1743110;81;21145;-71
2022/05/29 07:40:48;;;;;;;6.90;2.05;;;;;;;14.56;61.98;100247.71;1741466;81;21051;-71
2022/05/29 07:43:22;;;;;;;9.18;1.95;;;;;;;14.64;61.78;100248.86;1738456;81;21041;-71
2022/05/29 07:45:55;;;;;;;7.50;1.60;;;;;;;14.79;61.55;100252.23;1744390;81;21084;-72
2022/05/29 07:48:23;;;;;;;6.30;2.05;;;;;;;14.94;61.28;100255.61;1743260;80;21043;-71
2022/05/29 07:50:50;;;;;;;7.40;2.30;;;;;;;14.86;60.96;100253.09;1726040;82;21967;-71
2022/05/29 07:53:16;;;;;;;6.92;2.20;;;;;;;14.98;60.77;100250.15;1726669;82;21099;-71
2022/05/29 07:55:43;;;;;;;6.65;1.80;;;;;;;15.12;60.52;100247.81;1722366;82;21004;-71
2022/05/29 07:58:09;;;;;;;9.58;2.62;;;;;;;15.12;60.18;100246.47;1723363;82;21065;-71
2022/05/29 08:00:35;;;;;;;5.95;1.55;;;;;;;15.11;59.87;100248.00;1723524;82;21021;-71
2022/05/29 08:03:02;;;;;;;8.85;2.52;;;;;;;15.11;59.66;100247.49;1711178;82;21142;-72
2022/05/29 08:05:33;;;;;;;6.87;2.20;;;;;;;15.18;59.44;100242.97;1743416;81;21573;-72
2022/05/29 08:07:59;;;;;;;8.05;2.50;;;;;;;15.32;59.28;100243.81;1696382;83;21882;-71
2022/05/29 08:10:26;;;;;;;7.37;2.90;;;;;;;15.34;59.08;100239.88;1738760;81;21041;-72
2022/05/29 08:12:52;;;;;;;9.33;2.25;;;;;;;15.39;58.79;100245.48;1742964;81;21074;-72
2022/05/29 08:15:18;;;;;;;10.60;4.30;;;;;;;15.51;58.62;100247.60;1718928;82;21118;-72
2022/05/29 08:17:44;;;;;;;9.70;3.15;;;;;;;15.57;58.41;100251.63;1709263;82;21002;-72
2022/05/29 08:20:12;;;;;;;9.20;2.17;;;;;;;15.77;58.07;100248.94;1740260;81;21083;-71
2022/05/29 08:22:37;;;;;;;8.85;3.00;;;;;;;15.84;57.87;100243.87;1719094;82;21045;-71
2022/05/29 08:30:51;;;;;;;10.43;2.55;;;;;;;16.28;57.23;100245.89;1730796;82;21484;-71
2022/05/29 08:33:25;;;;;;;11.48;2.92;;;;;;;16.67;57.09;100233.37;1740936;81;21067;-71
2022/05/29 08:35:57;;;;;;;7.00;2.87;;;;;;;16.78;56.70;100227.33;1738794;81;21559;-72
2022/05/29 08:38:23;;;;;;;12.68;2.42;;;;;;;16.92;56.55;100225.67;1723067;82;21587;-72
2022/05/29 08:40:58;;;;;;;7.75;1.80;;;;;;;17.12;56.26;100235.02;1741054;81;21068;-72
2022/05/29 08:43:33;;;;;;;9.45;2.37;;;;;;;17.11;56.13;100227.13;1696485;83;21050;-72
2022/05/29 08:46:11;;;;;;;7.87;2.22;;;;;;;17.23;55.75;100231.63;1697478;84;21064;-71
2022/05/29 08:48:37;;;;;;;6.73;3.00;;;;;;;17.39;55.51;100225.70;1733897;81;20988;-72
2022/05/29 08:51:41;;;;;;;6.42;1.82;;;;;;;17.46;54.86;100229.18;1742595;81;21036;-72
2022/05/29 08:54:27;;;;;;;4.83;1.70;;;;;;;17.46;54.45;100221.09;1725948;81;22116;-72
2022/05/29 08:57:28;;;;;;;9.03;1.70;;;;;;;17.67;54.22;100226.66;1736233;81;21000;-70
2022/05/29 08:59:59;;;;;;;6.33;1.62;;;;;;;17.82;53.86;100223.63;1633767;85;21066;-69
2022/05/29 09:03:11;;;;;;;8.55;1.98;;;;;;;17.27;53.31;100219.38;1714330;82;21022;-69
2022/05/29 09:06:00;;;;;;;8.95;1.50;;;;;;;16.85;53.10;100228.13;1739891;81;21053;-70
2022/05/29 09:08:43;;;;;;;3.85;1.75;;;;;;;16.75;53.15;100223.69;1735642;81;21302;-69
2022/05/29 09:11:16;;;;;;;5.75;1.45;;;;;;;17.21;52.93;100218.88;1774095;80;21206;-70
2022/05/29 09:13:54;;;;;;;1.85;1.25;;;;;;;17.73;52.73;100208.23;1775384;79;21022;-74
2022/05/29 09:16:23;;;;;;;6.50;2.08;;;;;;;18.04;52.42;100216.80;1770981;80;21084;-72
2022/05/29 09:19:04;;;;;;;7.28;1.40;;;;;;;18.18;52.09;100214.26;1778062;80;21070;-72
2022/05/29 09:21:39;;;;;;;3.60;1.20;;;;;;;18.09;51.80;100212.88;1772584;80;21077;-72
2022/05/29 09:24:11;;;;;;;3.65;1.20;;;;;;;17.65;51.53;100215.80;1784088;79;20982;-72
2022/05/29 09:26:38;;;;;;;3.50;0.80;;;;;;;17.27;51.34;100219.38;1780961;79;21013;-72
2022/05/29 09:29:05;;;;;;;3.62;1.02;;;;;;;17.01;51.14;100219.53;1784719;79;21520;-72
2022/05/29 09:31:31;;;;;;;16.15;1.35;;;;;;;16.85;51.09;100224.08;1781927;79;20971;-72
2022/05/29 09:33:57;;;;;;;4.78;1.20;;;;;;;16.97;51.11;100214.27;1782091;79;21416;-72
2022/05/29 09:36:44;;;;;;;7.37;2.10;;;;;;;17.31;50.98;100218.42;1784261;79;21023;-72
2022/05/29 09:39:35;;;;;;;5.90;1.40;;;;;;;17.25;50.73;100219.27;1780209;79;21013;-71
2022/05/29 09:42:17;;;;;;;4.10;1.42;;;;;;;16.89;50.49;100215.84;1775624;79;20971;-72
2022/05/29 09:45:16;;;;;;;4.75;1.27;;;;;;;16.28;50.42;100220.33;1782142;79;21590;-72
2022/05/29 09:50:53;;;;;;;3.87;1.20;;;;;;;15.86;50.63;100222.99;1778518;79;21501;-72
2022/05/29 09:53:32;;;;;;;7.95;2.10;;;;;;;15.64;50.71;100220.72;1777039;79;20990;-72
2022/05/29 09:56:07;;;;;;;7.10;1.72;;;;;;;15.47;50.80;100221.62;1778161;79;21064;-71
2022/05/29 09:58:47;;;;;;;4.50;1.32;;;;;;;15.32;50.86;100220.97;1773917;79;20938;-72
2022/05/29 10:01:32;;;;;;;5.72;1.60;;;;;;;15.30;50.98;100218.51;1775719;79;21389;-72
2022/05/29 10:03:59;;;;;;;6.83;1.70;;;;;;;15.30;51.05;100213.65;1778015;79;21306;-72
2022/05/29 10:06:41;;;;;;;6.62;1.25;;;;;;;15.34;51.16;100214.90;1780733;79;21100;-72
2022/05/29 10:09:16;;;;;;;6.97;1.47;;;;;;;15.45;51.20;100212.91;1777833;79;21455;-72
2022/05/29 10:11:46;;;;;;;2.60;1.47;;;;;;;15.42;51.20;100211.47;1779967;79;21089;-72
2022/05/29 10:14:35;;;;;;;;;;;;;;;15.52;51.28;100212.98;1785909;79;21019;-72
2022/05/29 10:17:01;;;;;;;8.10;1.40;;;;;;;15.59;51.30;100212.43;1779712;79;20224;-72
2022/05/29 10:19:38;;;;;;;4.05;1.20;;;;;;;15.64;51.25;100208.11;1780864;79;21028;-72
2022/05/29 10:22:17;;;;;;;3.67;1.30;;;;;;;15.72;51.22;100215.14;1778068;79;20983;-72
2022/05/29 10:24:43;;;;;;;3.25;1.30;;;;;;;15.82;51.20;100212.85;1775549;79;21022;-72
2022/05/29 10:27:33;;;;;;;5.80;1.22;;;;;;;15.93;51.04;100206.84;1782133;79;21888;-72
2022/05/29 10:30:09;;;;;;;2.45;1.10;;;;;;;16.03;50.98;100205.89;1776476;79;21018;-72
2022/05/29 10:32:37;;;;;;;4.08;1.40;;;;;;;16.11;50.86;100208.88;1780243;79;20998;-72
2022/05/29 10:35:28;;;;;;;3.83;0.93;;;;;;;16.28;50.69;100212.77;1780701;79;21447;-72
2022/05/29 10:37:55;;;;;;;3.33;0.98;;;;;;;16.33;50.65;100201.66;1781903;79;21721;-71
2022/05/29 10:40:28;;;;;;;6.60;1.50;;;;;;;16.32;50.51;100204.07;1777068;79;22185;-72
2022/05/29 10:42:56;;;;;;;2.77;0.90;;;;;;;16.29;50.43;100192.91;1780666;79;21077;-71
2022/05/29 10:45:27;;;;;;;2.77;0.85;;;;;;;16.34;50.45;100196.59;1781595;79;21467;-72
2022/05/29 10:48:26;;;;;;;4.20;1.10;;;;;;;16.26;50.24;100194.13;1776513;79;21025;-72
2022/05/29 10:51:19;;;;;;;2.98;0.80;;;;;;;16.20;50.18;100194.16;1777040;79;21028;-71
2022/05/29 10:54:19;;;;;;;3.33;1.40;;;;;;;16.33;50.06;100189.55;1777803;79;21172;-72
2022/05/29 10:57:17;;;;;;;2.95;1.50;;;;;;;16.50;49.92;100185.34;1769805;79;21018;-72
2022/05/29 11:00:09;;;;;;;3.33;1.10;;;;;;;16.64;49.67;100175.37;1744785;79;21721;-72
2022/05/29 11:03:17;;;;;;;2.95;0.85;;;;;;;16.75;49.49;100180.59;1775903;79;21006;-72
2022/05/29 11:06:15;;;;;;;6.58;1.42;;;;;;;16.75;49.37;100182.77;1794204;79;21017;-72
2022/05/29 11:09:05;;;;;;;1.12;0.70;;;;;;;16.93;49.26;100173.97;1780775;79;21221;-72
2022/05/29 11:11:39;;;;;;;3.95;0.80;;;;;;;17.39;48.93;100170.44;1802871;78;21431;-72
2022/05/29 11:14:28;;;;;;;3.37;1.00;;;;;;;17.34;48.34;100172.98;1801507;79;21700;-72
2022/05/29 11:17:06;;;;;;;1.75;0.80;;;;;;;17.43;48.01;100175.70;1772676;81;20993;-72
2022/05/29 11:20:01;;;;;;;3.87;0.70;;;;;;;17.34;47.66;100179.72;1773629;81;20969;-72
2022/05/29 11:22:39;;;;;;;3.25;0.80;;;;;;;17.31;47.52;100176.09;1773288;81;21177;-72
2022/05/29 11:25:44;;;;;;;5.65;1.22;;;;;;;17.72;47.43;100182.33;1773475;81;20996;-72
2022/05/29 11:28:56;;;;;;;3.33;1.22;;;;;;;17.59;47.06;100185.13;1772717;81;21064;-72
2022/05/29 11:31:40;;;;;;;4.42;0.90;;;;;;;17.47;46.97;100186.34;1773496;81;20949;-71
2022/05/29 11:34:23;;;;;;;4.22;1.32;;;;;;;17.33;46.93;100188.02;1773747;81;20985;-72
2022/05/29 11:37:21;;;;;;;4.30;1.20;;;;;;;17.11;46.93;100191.58;1773633;81;21124;-72
2022/05/29 11:39:58;;;;;;;3.22;0.98;;;;;;;16.81;46.90;100197.27;1773374;81;20981;-72
2022/05/29 11:42:31;;;;;;;3.50;1.67;;;;;;;16.45;47.00;100199.15;1773582;81;21020;-72
2022/05/29 11:45:08;;;;;;;4.87;1.40;;;;;;;16.27;46.96;100196.31;1773390;81;21048;-72
2022/05/29 11:51:08;;;;;;;3.98;1.37;;;;;;;16.12;47.11;100190.34;1773336;81;21078;-72
2022/05/29 11:53:42;;;;;;;2.77;1.00;;;;;;;16.04;47.15;100191.41;1773418;81;21036;-72
2022/05/29 11:56:15;;;;;;;3.42;1.27;;;;;;;16.04;47.19;100184.69;1773527;81;21521;-72
2022/05/29 11:58:55;;;;;;;4.92;1.37;;;;;;;15.98;47.24;100191.72;1770506;81;20950;-72
2022/05/29 12:01:23;;;;;;;;;;;;;;;15.94;47.26;100188.30;1771619;81;20961;-72
2022/05/29 12:04:03;;;;;;;2.80;0.82;;;;;;;15.91;47.28;100187.38;1773621;81;21765;-72
2022/05/29 12:06:37;;;;;;;;;;;;;;;15.85;47.33;100180.16;1776044;81;20985;-72
2022/05/29 12:09:39;;;;;;;5.35;1.07;;;;;;;15.87;47.46;100180.77;1773400;81;20458;-72
2022/05/29 12:12:09;;;;;;;4.85;1.35;;;;;;;15.92;47.45;100183.66;1773648;81;21029;-72
2022/05/29 12:14:42;;;;;;;4.65;1.35;;;;;;;15.94;47.55;100186.95;1773255;80;21489;-72
2022/05/29 12:17:22;;;;;;;3.30;1.32;;;;;;;15.97;47.64;100189.26;1773252;81;21185;-72
2022/05/29 12:19:53;;;;;;;3.37;1.10;;;;;;;15.99;47.72;100184.48;1773327;81;21016;-71
2022/05/29 12:22:24;;;;;;;2.25;1.07;;;;;;;16.01;47.68;100177.02;1773552;81;20961;-72
2022/05/29 12:24:50;;;;;;;2.72;1.20;;;;;;;16.10;47.64;100177.11;1773538;81;21020;-72